sensor_id;sensor_type;location;lat;lon;timestamp;pressure;altitude;pressure_sealevel;temperature;humidity
67052;BME280;53957;47.222;18.670;2024-01-07T08:09:59;98797.19;;;4.47;100.00
67052;BME280;53957;47.222;18.670;2024-01-07T08:13:02;98795.47;;;4.32;100.00
67052;BME280;53957;47.222;18.670;2024-01-07T08:16:06;98801.47;;;4.38;100.00
67052;BME280;53957;47.222;18.670;2024-01-07T08:19:09;98797.53;;;4.35;100.00
67052;BME280;53957;47.222;18.670;2024-01-07T08:22:15;98797.13;;;4.23;100.00
67052;BME280;53957;47.222;18.670;2024-01-07T08:25:18;98789.97;;;4.29;100.00
67052;BME280;53957;47.222;18.670;2024-01-07T08:28:21;98804.44;;;4.31;100.00
67052;BME280;53957;47.222;18.670;2024-01-07T08:31:25;98809.56;;;4.17;100.00
67052;BME280;53957;47.222;18.670;2024-01-07T08:34:27;98807.94;;;4.22;100.00
67052;BME280;53957;47.222;18.670;2024-01-07T08:37:31;98818.53;;;4.16;100.00
67052;BME280;53957;47.222;18.670;2024-01-07T08:40:35;98814.84;;;4.17;100.00
67052;BME280;53957;47.222;18.670;2024-01-07T08:43:38;98816.69;;;4.17;100.00
67052;BME280;53957;47.222;18.670;2024-01-07T08:46:41;98811.19;;;4.08;100.00
67052;BME280;53957;47.222;18.670;2024-01-07T08:49:47;98825.16;;;4.14;100.00
67052;BME280;53957;47.222;18.670;2024-01-07T08:52:50;98823.34;;;4.09;100.00
67052;BME280;53957;47.222;18.670;2024-01-07T08:55:54;98829.63;;;4.13;100.00
67052;BME280;53957;47.222;18.670;2024-01-07T08:59:00;98836.00;;;4.07;100.00
67052;BME280;53957;47.222;18.670;2024-01-07T09:02:03;98841.28;;;4.07;100.00
67052;BME280;53957;47.222;18.670;2024-01-07T09:05:06;98842.06;;;4.13;100.00
67052;BME280;53957;47.222;18.670;2024-01-07T09:08:09;98839.69;;;4.06;100.00
67052;BME280;53957;47.222;18.670;2024-01-07T09:11:18;98844.19;;;4.06;100.00
67052;BME280;53957;47.222;18.670;2024-01-07T09:14:22;98845.44;;;4.18;100.00
67052;BME280;53957;47.222;18.670;2024-01-07T09:17:25;98848.66;;;4.10;100.00
67052;BME280;53957;47.222;18.670;2024-01-07T09:20:30;98854.06;;;4.29;100.00
67052;BME280;53957;47.222;18.670;2024-01-07T09:23:34;98850.75;;;4.13;100.00
67052;BME280;53957;47.222;18.670;2024-01-07T09:26:39;98848.19;;;4.03;100.00
67052;BME280;53957;47.222;18.670;2024-01-07T09:29:42;98855.66;;;3.85;100.00
67052;BME280;53957;47.222;18.670;2024-01-07T09:32:45;98863.03;;;3.83;100.00
67052;BME280;53957;47.222;18.670;2024-01-07T09:35:48;98850.59;;;3.94;100.00
67052;BME280;53957;47.222;18.670;2024-01-07T09:38:51;98857.22;;;3.92;100.00
67052;BME280;53957;47.222;18.670;2024-01-07T09:41:56;98854.59;;;3.86;100.00
67052;BME280;53957;47.222;18.670;2024-01-07T09:45:03;98855.69;;;3.75;100.00
67052;BME280;53957;47.222;18.670;2024-01-07T09:48:09;98858.66;;;3.63;100.00
67052;BME280;53957;47.222;18.670;2024-01-07T09:51:13;98852.31;;;3.59;100.00
67052;BME280;53957;47.222;18.670;2024-01-07T09:54:17;98856.56;;;3.55;100.00
67052;BME280;53957;47.222;18.670;2024-01-07T09:57:22;98842.59;;;3.54;100.00
67052;BME280;53957;47.222;18.670;2024-01-07T10:00:27;98845.25;;;3.54;100.00
67052;BME280;53957;47.222;18.670;2024-01-07T10:03:32;98845.56;;;3.37;100.00
67052;BME280;53957;47.222;18.670;2024-01-07T10:06:35;98838.75;;;3.26;100.00
67052;BME280;53957;47.222;18.670;2024-01-07T10:09:40;98842.13;;;3.32;100.00
67052;BME280;53957;47.222;18.670;2024-01-07T10:12:45;98841.13;;;3.22;100.00
67052;BME280;53957;47.222;18.670;2024-01-07T10:15:52;98842.44;;;3.15;100.00
67052;BME280;53957;47.222;18.670;2024-01-07T10:18:55;98840.63;;;3.10;100.00
67052;BME280;53957;47.222;18.670;2024-01-07T10:22:03;98842.97;;;3.17;100.00
67052;BME280;53957;47.222;18.670;2024-01-07T10:25:06;98840.84;;;3.24;100.00
67052;BME280;53957;47.222;18.670;2024-01-07T10:28:09;98838.00;;;3.05;100.00
67052;BME280;53957;47.222;18.670;2024-01-07T10:31:13;98851.69;;;3.07;100.00
67052;BME280;53957;47.222;18.670;2024-01-07T10:34:18;98850.37;;;2.99;100.00
67052;BME280;53957;47.222;18.670;2024-01-07T10:37:22;98844.84;;;3.01;100.00
67052;BME280;53957;47.222;18.670;2024-01-07T10:40:27;98839.88;;;2.89;100.00
67052;BME280;53957;47.222;18.670;2024-01-07T10:43:31;98841.16;;;2.86;100.00
67052;BME280;53957;47.222;18.670;2024-01-07T10:46:34;98833.00;;;2.78;100.00
67052;BME280;53957;47.222;18.670;2024-01-07T10:49:40;98833.28;;;2.81;100.00
67052;BME280;53957;47.222;18.670;2024-01-07T10:52:50;98824.88;;;2.64;100.00
67052;BME280;53957;47.222;18.670;2024-01-07T10:56:08;98835.13;;;2.81;100.00
67052;BME280;53957;47.222;18.670;2024-01-07T10:59:15;98838.78;;;2.85;100.00
67052;BME280;53957;47.222;18.670;2024-01-07T11:02:20;98833.00;;;2.78;100.00
67052;BME280;53957;47.222;18.670;2024-01-07T11:05:37;98829.63;;;2.67;100.00
67052;BME280;53957;47.222;18.670;2024-01-07T11:11:52;98837.22;;;2.84;100.00
67052;BME280;53957;47.222;18.670;2024-01-07T11:14:55;98830.66;;;2.71;100.00
67052;BME280;53957;47.222;18.670;2024-01-07T11:18:00;98831.19;;;2.63;100.00
67052;BME280;53957;47.222;18.670;2024-01-07T11:21:04;98830.66;;;2.50;100.00
67052;BME280;53957;47.222;18.670;2024-01-07T11:24:09;98832.78;;;2.53;100.00
67052;BME280;53957;47.222;18.670;2024-01-07T11:27:12;98829.34;;;2.48;100.00
67052;BME280;53957;47.222;18.670;2024-01-07T11:30:19;98827.50;;;2.53;100.00
67052;BME280;53957;47.222;18.670;2024-01-07T11:33:32;98832.78;;;2.53;100.00
67052;BME280;53957;47.222;18.670;2024-01-07T11:36:35;98834.59;;;2.53;100.00
67052;BME280;53957;47.222;18.670;2024-01-07T11:39:42;98829.84;;;2.34;100.00
67052;BME280;53957;47.222;18.670;2024-01-07T11:42:46;98829.34;;;2.37;100.00
67052;BME280;53957;47.222;18.670;2024-01-07T11:45:50;98832.78;;;2.48;100.00
67052;BME280;53957;47.222;18.670;2024-01-07T11:48:55;98832.75;;;2.43;100.00
67052;BME280;53957;47.222;18.670;2024-01-07T11:52:04;98833.53;;;2.33;100.00
67052;BME280;53957;47.222;18.670;2024-01-07T11:55:07;98826.69;;;2.27;100.00
67052;BME280;53957;47.222;18.670;2024-01-07T11:58:11;98830.62;;;2.30;100.00
67052;BME280;53957;47.222;18.670;2024-01-07T12:01:15;98832.47;;;2.29;100.00
67052;BME280;53957;47.222;18.670;2024-01-07T12:04:20;98812.47;;;2.28;100.00
67052;BME280;53957;47.222;18.670;2024-01-07T12:07:23;98832.47;;;2.19;100.00
67052;BME280;53957;47.222;18.670;2024-01-07T12:10:26;98841.41;;;2.18;100.00
67052;BME280;53957;47.222;18.670;2024-01-07T12:13:29;98842.69;;;2.00;100.00
67052;BME280;53957;47.222;18.670;2024-01-07T12:16:32;98841.34;;;1.92;100.00
67052;BME280;53957;47.222;18.670;2024-01-07T12:19:36;98836.88;;;1.87;100.00
67052;BME280;53957;47.222;18.670;2024-01-07T12:22:39;98841.56;;;1.80;100.00
67052;BME280;53957;47.222;18.670;2024-01-07T12:25:43;98841.63;;;1.90;100.00
67052;BME280;53957;47.222;18.670;2024-01-07T12:28:52;98837.88;;;1.76;100.00
67052;BME280;53957;47.222;18.670;2024-01-07T12:31:56;98843.44;;;1.85;100.00
67052;BME280;53957;47.222;18.670;2024-01-07T12:35:01;98839.47;;;1.72;100.00
67052;BME280;53957;47.222;18.670;2024-01-07T12:38:07;98844.72;;;1.72;100.00
67052;BME280;53957;47.222;18.670;2024-01-07T12:41:10;98853.84;;;1.59;100.00
67052;BME280;53957;47.222;18.670;2024-01-07T12:44:13;98850.78;;;1.77;100.00
67052;BME280;53957;47.222;18.670;2024-01-07T12:47:17;98859.38;;;1.57;100.00
67052;BME280;53957;47.222;18.670;2024-01-07T12:50:20;98858.53;;;1.47;100.00
67052;BME280;53957;47.222;18.670;2024-01-07T12:53:26;98857.75;;;1.46;100.00
67052;BME280;53957;47.222;18.670;2024-01-07T12:56:28;98857.47;;;1.42;100.00
67052;BME280;53957;47.222;18.670;2024-01-07T12:59:32;98867.72;;;1.44;100.00
67052;BME280;53957;47.222;18.670;2024-01-07T13:02:35;98873.44;;;1.36;100.00
67052;BME280;53957;47.222;18.670;2024-01-07T13:05:39;98865.63;;;1.41;100.00
67052;BME280;53957;47.222;18.670;2024-01-07T13:08:42;98871.16;;;1.50;100.00
67052;BME280;53957;47.222;18.670;2024-01-07T13:11:46;98875.56;;;1.34;100.00
67052;BME280;53957;47.222;18.670;2024-01-07T13:14:50;98878.97;;;1.39;100.00
67052;BME280;53957;47.222;18.670;2024-01-07T13:17:54;98881.91;;;1.43;100.00
67052;BME280;53957;47.222;18.670;2024-01-07T13:20:57;98898.91;;;1.30;100.00
67052;BME280;53957;47.222;18.670;2024-01-07T13:24:01;98896.78;;;1.27;100.00
67052;BME280;53957;47.222;18.670;2024-01-07T13:27:04;98895.16;;;1.21;100.00
67052;BME280;53957;47.222;18.670;2024-01-07T13:30:08;98909.81;;;1.11;100.00
67052;BME280;53957;47.222;18.670;2024-01-07T13:33:12;98904.88;;;1.20;100.00
67052;BME280;53957;47.222;18.670;2024-01-07T13:36:17;98908.00;;;1.17;100.00
67052;BME280;53957;47.222;18.670;2024-01-07T13:39:20;98910.28;;;1.03;100.00
67052;BME280;53957;47.222;18.670;2024-01-07T13:42:24;98910.44;;;0.91;100.00
67052;BME280;53957;47.222;18.670;2024-01-07T13:45:28;98922.62;;;1.03;100.00
67052;BME280;53957;47.222;18.670;2024-01-07T13:48:31;98928.38;;;1.00;100.00
67052;BME280;53957;47.222;18.670;2024-01-07T13:51:34;98915.75;;;0.96;100.00
67052;BME280;53957;47.222;18.670;2024-01-07T13:54:40;98932.25;;;0.92;100.00
67052;BME280;53957;47.222;18.670;2024-01-07T13:57:43;98926.19;;;0.91;100.00
67052;BME280;53957;47.222;18.670;2024-01-07T14:00:46;98931.44;;;0.91;100.00
67052;BME280;53957;47.222;18.670;2024-01-07T14:03:49;98937.78;;;0.95;100.00
67052;BME280;53957;47.222;18.670;2024-01-07T14:06:55;98942.37;;;0.78;100.00
67052;BME280;53957;47.222;18.670;2024-01-07T14:09:59;98934.53;;;0.83;100.00
67052;BME280;53957;47.222;18.670;2024-01-07T14:13:06;98921.56;;;0.71;100.00
67052;BME280;53957;47.222;18.670;2024-01-07T14:16:10;98940.28;;;0.80;100.00
67052;BME280;53957;47.222;18.670;2024-01-07T14:19:12;98941.78;;;0.71;100.00
67052;BME280;53957;47.222;18.670;2024-01-07T14:22:18;98953.38;;;0.75;100.00
67052;BME280;53957;47.222;18.670;2024-01-07T14:25:21;98954.56;;;0.62;100.00
67052;BME280;53957;47.222;18.670;2024-01-07T14:28:26;98958.47;;;0.59;100.00
67052;BME280;53957;47.222;18.670;2024-01-07T14:31:28;98962.78;;;0.71;100.00
67052;BME280;53957;47.222;18.670;2024-01-07T14:34:32;98969.47;;;0.56;100.00
67052;BME280;53957;47.222;18.670;2024-01-07T14:37:35;98976.84;;;0.59;100.00
67052;BME280;53957;47.222;18.670;2024-01-07T14:40:39;98966.28;;;0.54;100.00
67052;BME280;53957;47.222;18.670;2024-01-07T14:43:44;98972.63;;;0.58;100.00
67052;BME280;53957;47.222;18.670;2024-01-07T14:46:47;98980.56;;;0.63;100.00
67052;BME280;53957;47.222;18.670;2024-01-07T14:49:50;98986.34;;;0.66;100.00
67052;BME280;53957;47.222;18.670;2024-01-07T14:52:53;98983.25;;;0.46;100.00
67052;BME280;53957;47.222;18.670;2024-01-07T14:55:57;98980.28;;;0.38;100.00
67052;BME280;53957;47.222;18.670;2024-01-07T14:59:00;98995.66;;;0.29;100.00
67052;BME280;53957;47.222;18.670;2024-01-07T15:02:04;98998.22;;;0.24;100.00
67052;BME280;53957;47.222;18.670;2024-01-07T15:05:07;99001.78;;;0.35;100.00
67052;BME280;53957;47.222;18.670;2024-01-07T15:08:11;99007.78;;;0.35;100.00
67052;BME280;53957;47.222;18.670;2024-01-07T15:11:17;99009.09;;;0.32;100.00
67052;BME280;53957;47.222;18.670;2024-01-07T15:14:20;99011.81;;;0.21;100.00
67052;BME280;53957;47.222;18.670;2024-01-07T15:17:23;99013.09;;;0.18;100.00
67052;BME280;53957;47.222;18.670;2024-01-07T15:20:27;99005.28;;;0.23;100.00
67052;BME280;53957;47.222;18.670;2024-01-07T15:23:30;99007.78;;;0.13;100.00
67052;BME280;53957;47.222;18.670;2024-01-07T15:26:33;99008.81;;;0.12;100.00
67052;BME280;53957;47.222;18.670;2024-01-07T15:29:38;99004.00;;;0.26;100.00
67052;BME280;53957;47.222;18.670;2024-01-07T15:32:42;99008.94;;;0.22;100.00
67052;BME280;53957;47.222;18.670;2024-01-07T15:35:45;99011.94;;;0.09;100.00
67052;BME280;53957;47.222;18.670;2024-01-07T15:38:48;99017.19;;;0.09;100.00
67052;BME280;53957;47.222;18.670;2024-01-07T15:41:52;99016.81;;;0.00;100.00
67052;BME280;53957;47.222;18.670;2024-01-07T15:44:57;99026.34;;;0.06;100.00
67052;BME280;53957;47.222;18.670;2024-01-07T15:48:01;99022.78;;;-0.05;100.00
67052;BME280;53957;47.222;18.670;2024-01-07T15:51:04;99023.00;;;-0.06;100.00
67052;BME280;53957;47.222;18.670;2024-01-07T15:54:07;99021.81;;;0.02;100.00
67052;BME280;53957;47.222;18.670;2024-01-07T15:57:09;99031.41;;;-0.04;100.00
67052;BME280;53957;47.222;18.670;2024-01-07T16:00:13;99034.28;;;-0.06;100.00
67052;BME280;53957;47.222;18.670;2024-01-07T16:03:16;99032.28;;;0.02;100.00
67052;BME280;53957;47.222;18.670;2024-01-07T16:06:19;99039.22;;;-0.09;100.00
67052;BME280;53957;47.222;18.670;2024-01-07T16:09:22;99038.66;;;-0.11;100.00
67052;BME280;53957;47.222;18.670;2024-01-07T16:12:26;99036.09;;;-0.06;100.00
67052;BME280;53957;47.222;18.670;2024-01-07T16:15:33;99033.59;;;-0.18;100.00
67052;BME280;53957;47.222;18.670;2024-01-07T16:18:36;99044.53;;;-0.21;100.00
67052;BME280;53957;47.222;18.670;2024-01-07T16:21:40;99043.59;;;-0.15;100.00
67052;BME280;53957;47.222;18.670;2024-01-07T16:24:43;99053.94;;;-0.25;100.00
67052;BME280;53957;47.222;18.670;2024-01-07T16:27:46;99052.09;;;-0.25;100.00
67052;BME280;53957;47.222;18.670;2024-01-07T16:30:49;99059.09;;;-0.30;100.00
67052;BME280;53957;47.222;18.670;2024-01-07T16:33:53;99061.41;;;-0.17;100.00
67052;BME280;53957;47.222;18.670;2024-01-07T16:36:56;99068.53;;;-0.12;100.00
67052;BME280;53957;47.222;18.670;2024-01-07T16:39:59;99058.59;;;-0.27;100.00
67052;BME280;53957;47.222;18.670;2024-01-07T16:43:02;99057.69;;;-0.38;100.00
67052;BME280;53957;47.222;18.670;2024-01-07T16:46:07;99065.19;;;-0.25;100.00
67052;BME280;53957;47.222;18.670;2024-01-07T16:49:10;99072.03;;;-0.24;100.00
67052;BME280;53957;47.222;18.670;2024-01-07T16:52:33;99076.94;;;-0.27;100.00
67052;BME280;53957;47.222;18.670;2024-01-07T16:55:38;99082.38;;;-0.34;100.00
67052;BME280;53957;47.222;18.670;2024-01-07T16:58:41;99090.84;;;-0.44;100.00
67052;BME280;53957;47.222;18.670;2024-01-07T17:01:44;99098.31;;;-0.36;100.00
67052;BME280;53957;47.222;18.670;2024-01-07T17:04:47;99113.16;;;-0.41;100.00
67052;BME280;53957;47.222;18.670;2024-01-07T17:07:50;99115.94;;;-0.48;100.00
67052;BME280;53957;47.222;18.670;2024-01-07T17:10:54;99124.84;;;-0.49;100.00
67052;BME280;53957;47.222;18.670;2024-01-07T17:13:57;99124.34;;;-0.46;100.00
67052;BME280;53957;47.222;18.670;2024-01-07T17:17:00;99128.16;;;-0.54;100.00
67052;BME280;53957;47.222;18.670;2024-01-07T17:20:04;99129.59;;;-0.46;100.00
67052;BME280;53957;47.222;18.670;2024-01-07T17:23:08;99126.31;;;-0.53;100.00
67052;BME280;53957;47.222;18.670;2024-01-07T17:26:10;99136.91;;;-0.48;100.00
67052;BME280;53957;47.222;18.670;2024-01-07T17:29:14;99133.53;;;-0.60;100.00
67052;BME280;53957;47.222;18.670;2024-01-07T17:32:16;99131.25;;;-0.57;100.00
67052;BME280;53957;47.222;18.670;2024-01-07T17:35:25;99126.09;;;-0.52;100.00
67052;BME280;53957;47.222;18.670;2024-01-07T17:38:28;99129.09;;;-0.60;100.00
67052;BME280;53957;47.222;18.670;2024-01-07T17:41:32;99131.94;;;-0.61;100.00
67052;BME280;53957;47.222;18.670;2024-01-07T17:44:37;99128.31;;;-0.60;100.00
67052;BME280;53957;47.222;18.670;2024-01-07T17:47:45;99143.78;;;-0.59;100.00
67052;BME280;53957;47.222;18.670;2024-01-07T17:50:48;99153.34;;;-0.65;100.00
67052;BME280;53957;47.222;18.670;2024-01-07T17:53:51;99161.00;;;-0.63;100.00
67052;BME280;53957;47.222;18.670;2024-01-07T17:56:55;99162.56;;;-0.62;100.00
67052;BME280;53957;47.222;18.670;2024-01-07T17:59:59;99162.69;;;-0.57;100.00
67052;BME280;53957;47.222;18.670;2024-01-07T18:03:03;99165.78;;;-0.72;100.00
67052;BME280;53957;47.222;18.670;2024-01-07T18:06:10;99160.00;;;-0.74;100.00
67052;BME280;53957;47.222;18.670;2024-01-07T18:09:13;99171.75;;;-0.76;100.00
67052;BME280;53957;47.222;18.670;2024-01-07T18:12:17;99168.75;;;-0.68;100.00
67052;BME280;53957;47.222;18.670;2024-01-07T18:15:20;99182.56;;;-0.73;100.00
67052;BME280;53957;47.222;18.670;2024-01-07T18:18:23;99182.06;;;-0.70;100.00
67052;BME280;53957;47.222;18.670;2024-01-07T18:21:29;99177.31;;;-0.73;100.00
67052;BME280;53957;47.222;18.670;2024-01-07T18:24:34;99188.56;;;-0.72;100.00
67052;BME280;53957;47.222;18.670;2024-01-07T18:27:37;99193.03;;;-0.73;100.00
67052;BME280;53957;47.222;18.670;2024-01-07T18:30:41;99190.28;;;-0.78;100.00
67052;BME280;53957;47.222;18.670;2024-01-07T18:33:45;99197.78;;;-0.70;100.00
67052;BME280;53957;47.222;18.670;2024-01-07T18:36:49;99199.75;;;-0.77;100.00
67052;BME280;53957;47.222;18.670;2024-01-07T18:39:53;99204.78;;;-0.87;100.00
67052;BME280;53957;47.222;18.670;2024-01-07T18:42:56;99211.72;;;-0.81;100.00
67052;BME280;53957;47.222;18.670;2024-01-07T18:45:59;99220.59;;;-0.82;100.00
67052;BME280;53957;47.222;18.670;2024-01-07T18:49:03;99227.34;;;-0.86;100.00
67052;BME280;53957;47.222;18.670;2024-01-07T18:52:07;99231.66;;;-0.92;100.00
67052;BME280;53957;47.222;18.670;2024-01-07T18:55:16;99224.63;;;-0.91;100.00
67052;BME280;53957;47.222;18.670;2024-01-07T18:58:23;99242.00;;;-0.85;100.00
67052;BME280;53957;47.222;18.670;2024-01-07T19:01:26;99246.59;;;-0.92;100.00
67052;BME280;53957;47.222;18.670;2024-01-07T19:04:30;99249.88;;;-0.85;100.00
67052;BME280;53957;47.222;18.670;2024-01-07T19:07:37;99247.25;;;-0.85;100.00
67052;BME280;53957;47.222;18.670;2024-01-07T19:10:39;99245.09;;;-1.00;100.00
67052;BME280;53957;47.222;18.670;2024-01-07T19:13:43;99250.81;;;-1.03;100.00
67052;BME280;53957;47.222;18.670;2024-01-07T19:16:46;99253.28;;;-0.97;100.00
67052;BME280;53957;47.222;18.670;2024-01-07T19:19:49;99251.59;;;-1.03;100.00
67052;BME280;53957;47.222;18.670;2024-01-07T19:22:53;99262.19;;;-0.98;100.00
67052;BME280;53957;47.222;18.670;2024-01-07T19:25:57;99264.91;;;-1.04;100.00
67052;BME280;53957;47.222;18.670;2024-01-07T19:28:59;99275.72;;;-1.01;100.00
67052;BME280;53957;47.222;18.670;2024-01-07T19:32:03;99272.19;;;-1.06;100.00
67052;BME280;53957;47.222;18.670;2024-01-07T19:35:07;99278.22;;;-1.06;100.00
67052;BME280;53957;47.222;18.670;2024-01-07T19:38:11;99272.09;;;-1.00;100.00
67052;BME280;53957;47.222;18.670;2024-01-07T19:41:24;99277.41;;;-1.06;100.00
67052;BME280;53957;47.222;18.670;2024-01-07T19:44:28;99279.59;;;-1.03;100.00
67052;BME280;53957;47.222;18.670;2024-01-07T19:47:31;99283.91;;;-1.09;100.00
67052;BME280;53957;47.222;18.670;2024-01-07T19:50:35;99287.88;;;-1.06;100.00
67052;BME280;53957;47.222;18.670;2024-01-07T19:53:39;99284.59;;;-1.02;100.00
67052;BME280;53957;47.222;18.670;2024-01-07T19:56:42;99298.91;;;-1.16;100.00
67052;BME280;53957;47.222;18.670;2024-01-07T19:59:48;99294.03;;;-1.12;100.00
67052;BME280;53957;47.222;18.670;2024-01-07T20:02:51;99298.72;;;-1.15;100.00
67052;BME280;53957;47.222;18.670;2024-01-07T20:06:00;99303.03;;;-1.20;100.00
67052;BME280;53957;47.222;18.670;2024-01-07T20:09:06;99308.94;;;-1.13;100.00
67052;BME280;53957;47.222;18.670;2024-01-07T20:12:09;99303.50;;;-1.23;100.00
67052;BME280;53957;47.222;18.670;2024-01-07T20:15:12;99315.75;;;-1.24;100.00
67052;BME280;53957;47.222;18.670;2024-01-07T20:18:16;99315.44;;;-1.16;100.00
67052;BME280;53957;47.222;18.670;2024-01-07T20:21:21;99324.44;;;-1.23;100.00
67052;BME280;53957;47.222;18.670;2024-01-07T20:24:25;99332.13;;;-1.28;100.00
67052;BME280;53957;47.222;18.670;2024-01-07T20:27:28;99330.78;;;-1.19;100.00
67052;BME280;53957;47.222;18.670;2024-01-07T20:30:31;99332.13;;;-1.28;100.00
67052;BME280;53957;47.222;18.670;2024-01-07T20:33:36;99330.56;;;-1.30;100.00
67052;BME280;53957;47.222;18.670;2024-01-07T20:36:40;99333.72;;;-1.27;100.00
67052;BME280;53957;47.222;18.670;2024-01-07T20:39:43;99332.84;;;-1.33;100.00
67052;BME280;53957;47.222;18.670;2024-01-07T20:42:46;99338.03;;;-1.45;100.00
67052;BME280;53957;47.222;18.670;2024-01-07T20:45:50;99334.84;;;-1.47;100.00
67052;BME280;53957;47.222;18.670;2024-01-07T20:48:55;99336.78;;;-1.42;100.00
67052;BME280;53957;47.222;18.670;2024-01-07T20:51:58;99340.06;;;-1.47;100.00
67052;BME280;53957;47.222;18.670;2024-01-07T20:55:03;99336.00;;;-1.43;100.00
67052;BME280;53957;47.222;18.670;2024-01-07T20:58:06;99345.28;;;-1.47;100.00
67052;BME280;53957;47.222;18.670;2024-01-07T21:01:09;99348.84;;;-1.41;100.00
67052;BME280;53957;47.222;18.670;2024-01-07T21:04:12;99350.41;;;-1.52;100.00
67052;BME280;53957;47.222;18.670;2024-01-07T21:07:16;99366.94;;;-1.40;100.00
67052;BME280;53957;47.222;18.670;2024-01-07T21:10:19;99363.50;;;-1.52;100.00
67052;BME280;53957;47.222;18.670;2024-01-07T21:13:22;99360.97;;;-1.59;100.00
67052;BME280;53957;47.222;18.670;2024-01-07T21:16:25;99367.13;;;-1.53;100.00
67052;BME280;53957;47.222;18.670;2024-01-07T21:19:28;99375.44;;;-1.44;100.00
67052;BME280;53957;47.222;18.670;2024-01-07T21:22:31;99381.13;;;-1.48;100.00
67052;BME280;53957;47.222;18.670;2024-01-07T21:25:35;99383.37;;;-1.51;100.00
67052;BME280;53957;47.222;18.670;2024-01-07T21:28:37;99388.97;;;-1.48;100.00
67052;BME280;53957;47.222;18.670;2024-01-07T21:31:41;99380.88;;;-1.58;100.00
67052;BME280;53957;47.222;18.670;2024-01-07T21:34:44;99385.44;;;-1.53;100.00
67052;BME280;53957;47.222;18.670;2024-01-07T21:37:47;99388.69;;;-1.70;100.00
67052;BME280;53957;47.222;18.670;2024-01-07T21:40:50;99396.66;;;-1.65;100.00
67052;BME280;53957;47.222;18.670;2024-01-07T21:43:56;99402.75;;;-1.71;100.00
67052;BME280;53957;47.222;18.670;2024-01-07T21:46:59;99408.28;;;-1.60;100.00
67052;BME280;53957;47.222;18.670;2024-01-07T21:50:03;99414.69;;;-1.75;100.00
67052;BME280;53957;47.222;18.670;2024-01-07T21:53:07;99411.09;;;-1.62;100.00
67052;BME280;53957;47.222;18.670;2024-01-07T21:56:10;99417.25;;;-1.56;100.00
67052;BME280;53957;47.222;18.670;2024-01-07T21:59:14;99418.81;;;-1.67;100.00
67052;BME280;53957;47.222;18.670;2024-01-07T22:02:17;99418.91;;;-1.74;100.00
67052;BME280;53957;47.222;18.670;2024-01-07T22:05:21;99422.00;;;-1.65;100.00
67052;BME280;53957;47.222;18.670;2024-01-07T22:08:24;99422.53;;;-1.75;100.00
67052;BME280;53957;47.222;18.670;2024-01-07T22:11:27;99418.09;;;-1.74;100.00
67052;BME280;53957;47.222;18.670;2024-01-07T22:14:30;99418.59;;;-1.66;100.00
67052;BME280;53957;47.222;18.670;2024-01-07T22:17:34;99410.72;;;-1.77;100.00
67052;BME280;53957;47.222;18.670;2024-01-07T22:20:38;99426.16;;;-1.76;100.00
67052;BME280;53957;47.222;18.670;2024-01-07T22:23:42;99433.41;;;-1.78;100.00
67052;BME280;53957;47.222;18.670;2024-01-07T22:26:45;99441.06;;;-1.76;100.00
67052;BME280;53957;47.222;18.670;2024-01-07T22:29:48;99441.72;;;-1.81;100.00
67052;BME280;53957;47.222;18.670;2024-01-07T22:32:51;99448.53;;;-1.80;100.00
67052;BME280;53957;47.222;18.670;2024-01-07T22:35:54;99450.47;;;-1.75;100.00
67052;BME280;53957;47.222;18.670;2024-01-07T22:38:58;99457.09;;;-1.73;100.00
67052;BME280;53957;47.222;18.670;2024-01-07T22:42:02;99456.81;;;-1.83;100.00
67052;BME280;53957;47.222;18.670;2024-01-07T22:45:05;99466.69;;;-1.85;100.00
67052;BME280;53957;47.222;18.670;2024-01-07T22:48:11;99473.31;;;-1.83;100.00
67052;BME280;53957;47.222;18.670;2024-01-07T22:51:14;99478.59;;;-1.89;100.00
67052;BME280;53957;47.222;18.670;2024-01-07T22:54:17;99472.50;;;-1.83;100.00
67052;BME280;53957;47.222;18.670;2024-01-07T22:57:20;99482.97;;;-1.83;100.00
67052;BME280;53957;47.222;18.670;2024-01-07T23:00:23;99486.53;;;-1.96;100.00
67052;BME280;53957;47.222;18.670;2024-01-07T23:03:27;99488.47;;;-1.91;100.00
67052;BME280;53957;47.222;18.670;2024-01-07T23:06:30;99488.91;;;-1.95;100.00
67052;BME280;53957;47.222;18.670;2024-01-07T23:09:34;99487.69;;;-1.92;100.00
67052;BME280;53957;47.222;18.670;2024-01-07T23:12:37;99494.41;;;-1.84;100.00
67052;BME280;53957;47.222;18.670;2024-01-07T23:15:44;99498.22;;;-1.99;100.00
67052;BME280;53957;47.222;18.670;2024-01-07T23:18:47;99501.97;;;-1.95;100.00
67052;BME280;53957;47.222;18.670;2024-01-07T23:21:50;99498.63;;;-2.02;100.00
67052;BME280;53957;47.222;18.670;2024-01-07T23:24:54;99490.94;;;-2.15;100.00
67052;BME280;53957;47.222;18.670;2024-01-07T23:27:58;99501.97;;;-2.13;100.00
67052;BME280;53957;47.222;18.670;2024-01-07T23:31:03;99511.41;;;-2.12;100.00
67052;BME280;53957;47.222;18.670;2024-01-07T23:34:06;99514.59;;;-2.10;100.00
67052;BME280;53957;47.222;18.670;2024-01-07T23:37:09;99516.69;;;-2.00;100.00
67052;BME280;53957;47.222;18.670;2024-01-07T23:40:12;99522.72;;;-2.18;100.00
67052;BME280;53957;47.222;18.670;2024-01-07T23:43:16;99519.22;;;-2.31;100.00
67052;BME280;53957;47.222;18.670;2024-01-07T23:46:19;99521.16;;;-2.26;100.00
67052;BME280;53957;47.222;18.670;2024-01-07T23:49:22;99529.09;;;-2.14;100.00
67052;BME280;53957;47.222;18.670;2024-01-07T23:52:27;99530.97;;;-2.21;100.00
67052;BME280;53957;47.222;18.670;2024-01-07T23:55:31;99537.06;;;-2.28;100.00
67052;BME280;53957;47.222;18.670;2024-01-07T23:58:35;99543.37;;;-2.35;100.00
